Time;durP1;ratioP1;P1;durP2;ratioP2;P2;SDS_P1;SDS_P2;PMS_P1;PMS_P2;Temp;Humidity;BMP_temperature;BMP_pressure;BME280_temperature;BME280_humidity;BME280_pressure;Samples;Min_cycle;Max_cycle;Signal;HPM_P1;HPM_P2
2022/01/01 00:02:00;;;;;;;15.05;9.25;;;;;;;10.53;65.90;96667.56;4824261;29;20519;-39
2022/01/01 00:04:28;;;;;;;12.50;7.25;;;;;;;10.16;67.58;96670.72;4823684;29;20058;-40
2022/01/01 00:06:55;;;;;;;10.50;6.82;;;;;;;10.01;68.08;96672.72;4824573;29;20054;-42
2022/01/01 00:09:22;;;;;;;8.98;6.53;;;;;;;9.83;68.84;96676.44;4824401;29;20107;-47
2022/01/01 00:11:49;;;;;;;8.48;5.47;;;;;;;9.90;68.46;96676.78;4824317;29;20054;-41
2022/01/01 00:14:16;;;;;;;8.63;5.90;;;;;;;9.96;68.37;96672.84;4824370;29;20074;-39
2022/01/01 00:16:47;;;;;;;8.90;5.47;;;;;;;9.79;68.90;96668.13;4837741;29;20050;-44
2022/01/01 00:19:14;;;;;;;8.90;5.90;;;;;;;9.77;69.12;96659.53;4823849;29;20060;-39
2022/01/01 00:21:43;;;;;;;7.95;5.05;;;;;;;9.83;68.85;96658.28;4829212;29;20607;-46
2022/01/01 00:24:11;;;;;;;9.70;5.85;;;;;;;9.79;68.95;96670.84;4841561;29;20057;-46
2022/01/01 00:26:38;;;;;;;7.20;5.28;;;;;;;9.76;69.09;96671.47;4842261;29;20058;-45
2022/01/01 00:29:05;;;;;;;6.35;4.47;;;;;;;9.76;69.06;96666.06;4841985;29;20522;-46
2022/01/01 00:31:32;;;;;;;8.18;4.82;;;;;;;9.82;69.06;96664.03;4834441;29;20046;-44
2022/01/01 00:33:59;;;;;;;6.32;4.30;;;;;;;9.53;70.11;96662.56;4824448;29;20162;-47
2022/01/01 00:36:27;;;;;;;6.22;3.60;;;;;;;9.57;69.90;96662.75;4822722;29;20056;-42
2022/01/01 00:38:55;;;;;;;5.60;3.63;;;;;;;9.54;70.10;96669.56;4823492;29;20474;-43
2022/01/01 00:41:21;;;;;;;7.18;4.10;;;;;;;9.31;71.42;96684.16;4823952;29;20047;-44
2022/01/01 00:43:48;;;;;;;7.32;3.97;;;;;;;9.63;70.24;96693.16;4824023;29;20054;-47
2022/01/01 00:46:16;;;;;;;7.70;4.63;;;;;;;9.68;69.96;96691.09;4823676;29;20082;-47
2022/01/01 00:48:43;;;;;;;9.57;6.13;;;;;;;9.47;70.41;96681.91;4852411;29;20081;-40
2022/01/01 00:51:25;;;;;;;6.85;3.88;;;;;;;9.30;71.17;96691.47;4837789;29;20157;-42
2022/01/01 00:53:52;;;;;;;5.57;3.40;;;;;;;9.50;70.42;96705.59;4824010;29;20050;-41
2022/01/01 00:56:19;;;;;;;6.68;4.18;;;;;;;9.44;70.36;96704.91;4824609;29;20050;-45
2022/01/01 00:58:46;;;;;;;6.93;3.45;;;;;;;9.40;70.67;96705.84;4825463;29;20050;-41
2022/01/01 01:01:13;;;;;;;5.72;3.78;;;;;;;9.43;70.90;96700.63;4841367;29;20155;-44
2022/01/01 01:03:40;;;;;;;5.30;3.55;;;;;;;9.56;70.22;96701.69;4842102;29;20057;-42
2022/01/01 01:06:07;;;;;;;5.57;3.33;;;;;;;9.45;70.90;96703.81;4842076;29;20046;-41
2022/01/01 01:08:33;;;;;;;6.63;3.33;;;;;;;9.40;71.12;96701.25;4836367;29;20130;-40
2022/01/01 01:11:01;;;;;;;4.93;3.28;;;;;;;9.42;70.84;96703.63;4837453;29;20170;-41
2022/01/01 01:13:31;;;;;;;6.10;4.63;;;;;;;9.47;70.14;96701.59;4823372;29;20050;-40
2022/01/01 01:15:58;;;;;;;6.57;3.97;;;;;;;9.73;69.32;96703.72;4827798;29;20046;-41
2022/01/01 01:18:25;;;;;;;5.80;3.75;;;;;;;9.45;70.52;96713.81;4841334;29;20448;-40
2022/01/01 01:20:52;;;;;;;6.35;3.60;;;;;;;9.04;72.20;96723.63;4855792;29;20050;-45
2022/01/01 01:23:19;;;;;;;8.70;5.55;;;;;;;9.24;71.07;96724.28;4823301;29;20047;-40
2022/01/01 01:25:46;;;;;;;11.73;9.25;;;;;;;9.40;70.58;96722.84;4823348;29;20410;-42
2022/01/01 01:28:14;;;;;;;9.68;6.20;;;;;;;9.38;70.32;96727.75;4823080;29;20469;-39
2022/01/01 01:30:42;;;;;;;6.93;3.80;;;;;;;9.40;70.54;96722.06;4822650;29;20141;-45
2022/01/01 01:33:10;;;;;;;6.25;4.50;;;;;;;9.66;69.42;96733.06;4823346;29;20042;-43
2022/01/01 01:35:38;;;;;;;6.43;4.03;;;;;;;9.17;71.18;96729.31;4823475;29;20095;-43
2022/01/01 01:38:05;;;;;;;6.07;4.18;;;;;;;9.19;70.95;96743.28;4822796;29;20082;-47
2022/01/01 01:40:32;;;;;;;6.20;4.15;;;;;;;9.50;69.66;96730.72;4823004;29;20394;-42
2022/01/01 01:43:00;;;;;;;6.80;4.53;;;;;;;9.37;70.17;96734.25;4823425;29;20053;-45
2022/01/01 01:45:28;;;;;;;5.75;4.25;;;;;;;9.53;69.92;96743.59;4823622;29;20058;-44
2022/01/01 01:47:56;;;;;;;6.22;3.80;;;;;;;9.50;70.05;96743.41;4823836;29;20119;-42
2022/01/01 01:50:23;;;;;;;6.85;4.07;;;;;;;9.40;69.91;96732.84;4825679;29;20066;-45
2022/01/01 01:52:55;;;;;;;6.95;3.83;;;;;;;9.13;71.20;96738.00;4824666;29;20051;-42
2022/01/01 01:55:22;;;;;;;6.28;4.45;;;;;;;9.19;71.12;96733.28;4823320;29;20054;-45
2022/01/01 01:57:50;;;;;;;7.70;4.20;;;;;;;8.85;72.12;96731.84;4822907;29;20056;-45
2022/01/01 02:03:09;;;;;;;6.28;4.35;;;;;;;9.35;70.45;96731.06;4823263;29;20425;-43
2022/01/01 02:05:38;;;;;;;9.18;5.10;;;;;;;9.20;70.54;96734.09;4822764;29;20073;-44
2022/01/01 02:08:06;;;;;;;8.98;4.75;;;;;;;9.11;70.73;96734.81;4821676;29;20129;-44
2022/01/01 02:10:34;;;;;;;6.90;4.65;;;;;;;9.08;71.08;96740.81;4822631;29;20052;-49
2022/01/01 02:13:15;;;;;;;6.30;4.53;;;;;;;9.25;70.20;96736.69;4822644;29;20064;-42
2022/01/01 02:18:15;;;;;;;6.43;4.07;;;;;;;9.54;69.11;96739.78;4839212;29;20054;-41
2022/01/01 02:20:49;;;;;;;7.05;4.07;;;;;;;9.44;69.41;96731.13;4840867;29;20052;-39
2022/01/01 02:23:25;;;;;;;8.05;4.22;;;;;;;9.51;69.23;96728.81;4822811;29;20053;-41
2022/01/01 02:25:54;;;;;;;7.20;4.10;;;;;;;9.35;70.01;96745.34;4822283;29;20429;-41
2022/01/01 02:28:23;;;;;;;6.97;3.70;;;;;;;9.07;70.69;96735.72;4821810;29;20050;-40
2022/01/01 02:30:50;;;;;;;5.82;3.50;;;;;;;9.03;70.88;96732.81;4821118;29;20050;-41
2022/01/01 02:33:18;;;;;;;6.68;4.05;;;;;;;9.31;70.16;96735.47;4822267;29;20090;-40
2022/01/01 02:35:45;;;;;;;7.05;4.38;;;;;;;8.91;72.01;96729.84;4822202;29;20054;-42
2022/01/01 02:38:12;;;;;;;6.43;4.18;;;;;;;9.01;71.05;96728.84;4820471;29;20050;-40
2022/01/01 02:40:40;;;;;;;6.45;4.00;;;;;;;9.04;70.88;96730.94;4830677;29;20043;-40
2022/01/01 02:43:07;;;;;;;6.25;3.55;;;;;;;8.54;73.30;96726.25;4822418;29;20121;-41
2022/01/01 02:45:34;;;;;;;6.57;3.60;;;;;;;8.76;71.89;96720.16;4822254;29;20081;-43
2022/01/01 02:48:01;;;;;;;5.82;3.40;;;;;;;8.74;71.92;96726.94;4821585;29;20050;-42
2022/01/01 02:50:28;;;;;;;5.47;3.20;;;;;;;8.45;73.32;96725.38;4822026;29;20051;-41
2022/01/01 02:52:55;;;;;;;6.82;3.10;;;;;;;8.80;71.98;96723.84;4836361;29;20046;-41
2022/01/01 02:55:22;;;;;;;4.43;2.80;;;;;;;8.67;72.16;96724.66;4840134;29;20496;-41
2022/01/01 02:57:48;;;;;;;4.80;3.03;;;;;;;8.27;74.32;96723.50;4840216;29;20049;-41
2022/01/01 03:00:16;;;;;;;6.38;3.50;;;;;;;8.17;74.77;96733.38;4835757;29;20390;-40
2022/01/01 03:02:45;;;;;;;4.90;3.00;;;;;;;8.13;75.09;96735.06;4823776;29;20056;-41
2022/01/01 03:05:12;;;;;;;5.78;3.05;;;;;;;8.02;75.32;96738.22;4823761;29;20054;-40
2022/01/01 03:07:39;;;;;;;5.40;3.15;;;;;;;8.07;74.99;96736.25;4823324;29;20058;-42
2022/01/01 03:10:06;;;;;;;5.47;3.25;;;;;;;8.15;74.84;96735.56;4822004;29;20051;-40
2022/01/01 03:12:33;;;;;;;5.53;3.17;;;;;;;8.19;74.29;96739.28;4822022;29;20069;-40
2022/01/01 03:15:00;;;;;;;6.20;3.28;;;;;;;8.43;73.39;96749.91;4836012;29;20061;-40
2022/01/01 03:17:28;;;;;;;5.57;3.20;;;;;;;8.57;72.63;96743.72;4822011;29;20093;-41
2022/01/01 03:19:55;;;;;;;4.93;3.00;;;;;;;7.83;76.01;96746.34;4825367;29;20053;-40
2022/01/01 03:22:22;;;;;;;4.72;2.88;;;;;;;8.23;73.98;96750.25;4839105;29;20421;-40
2022/01/01 03:24:49;;;;;;;5.25;2.97;;;;;;;8.25;74.37;96749.94;4844496;29;20431;-40
2022/01/01 03:27:16;;;;;;;6.20;3.00;;;;;;;8.23;74.31;96754.88;4842752;29;20050;-42
2022/01/01 03:29:43;;;;;;;6.30;3.38;;;;;;;8.33;73.62;96765.47;4842112;29;20245;-42
2022/01/01 03:32:10;;;;;;;5.82;3.05;;;;;;;8.62;72.19;96763.31;4824503;29;20050;-40
2022/01/01 03:34:37;;;;;;;6.25;3.00;;;;;;;8.19;74.19;96766.25;4824616;29;20054;-41
2022/01/01 03:37:04;;;;;;;4.85;3.08;;;;;;;8.63;71.87;96770.31;4824604;29;20501;-40
2022/01/01 03:39:31;;;;;;;4.45;2.95;;;;;;;8.40;72.98;96766.69;4825817;29;20050;-40
2022/01/01 03:41:58;;;;;;;5.72;3.50;;;;;;;7.94;75.38;96767.44;4829646;29;20417;-40
2022/01/01 03:44:25;;;;;;;5.80;3.08;;;;;;;7.97;75.25;96779.53;4827824;29;20061;-40
2022/01/01 03:46:58;;;;;;;5.00;3.13;;;;;;;8.03;75.43;96778.38;4824607;29;20489;-42
2022/01/01 03:49:25;;;;;;;5.18;2.90;;;;;;;8.66;72.48;96785.91;4824217;29;20505;-44
2022/01/01 03:51:52;;;;;;;7.22;2.92;;;;;;;8.57;72.60;96787.69;4831873;29;20061;-39
2022/01/01 03:54:20;;;;;;;5.78;3.33;;;;;;;8.88;71.20;96787.13;4843864;29;20050;-40
2022/01/01 03:56:47;;;;;;;7.75;3.30;;;;;;;9.05;70.77;96791.91;4843003;29;20085;-41
2022/01/01 03:59:14;;;;;;;5.25;3.10;;;;;;;8.61;72.53;96796.81;4841159;29;20053;-40
2022/01/01 04:01:41;;;;;;;5.50;2.85;;;;;;;8.85;71.39;96793.13;4824234;29;20081;-41
2022/01/01 04:04:08;;;;;;;5.72;3.45;;;;;;;8.90;71.24;96790.31;4824280;29;20050;-41
2022/01/01 04:06:35;;;;;;;5.35;3.30;;;;;;;8.63;72.09;96791.88;4825285;29;20046;-41
2022/01/01 04:09:02;;;;;;;6.47;3.47;;;;;;;7.92;75.54;96795.78;4824941;29;20053;-42
2022/01/01 04:11:29;;;;;;;6.40;3.17;;;;;;;8.28;74.29;96787.09;4825522;29;20070;-41
2022/01/01 04:13:56;;;;;;;5.30;3.13;;;;;;;8.42;72.80;96780.69;4825096;29;20114;-40
2022/01/01 04:16:26;;;;;;;5.68;3.08;;;;;;;8.61;72.16;96780.63;4826959;29;20205;-40
2022/01/01 04:18:53;;;;;;;6.75;3.92;;;;;;;8.11;74.95;96790.38;4842035;29;20466;-40
2022/01/01 04:21:20;;;;;;;4.68;2.83;;;;;;;7.92;75.64;96783.09;4838695;29;20050;-39
2022/01/01 04:23:46;;;;;;;5.68;3.20;;;;;;;8.60;72.67;96779.00;4824002;29;20046;-42
2022/01/01 04:26:13;;;;;;;5.28;3.40;;;;;;;8.56;72.28;96769.91;4823990;29;20245;-39
2022/01/01 04:28:41;;;;;;;5.57;3.30;;;;;;;8.64;72.04;96774.63;4823650;29;20058;-40
2022/01/01 04:31:09;;;;;;;6.35;3.25;;;;;;;7.77;75.92;96769.06;4823701;29;20439;-39
2022/01/01 04:33:36;;;;;;;5.60;3.42;;;;;;;8.14;74.37;96773.59;4823034;29;20106;-39
2022/01/01 04:36:03;;;;;;;10.15;4.07;;;;;;;7.97;75.24;96776.84;4823922;29;20058;-39
2022/01/01 04:40:57;;;;;;;6.45;3.13;;;;;;;7.98;75.73;96781.13;4823758;29;20063;-39
2022/01/01 04:43:24;;;;;;;5.05;3.08;;;;;;;8.13;74.88;96786.28;4823775;29;20397;-39
2022/01/01 04:45:51;;;;;;;6.82;3.42;;;;;;;7.39;78.69;96787.97;4823769;29;20532;-40
2022/01/01 04:48:18;;;;;;;5.57;3.35;;;;;;;7.82;76.65;96787.88;4823050;29;20134;-39
2022/01/01 04:50:45;;;;;;;5.70;3.13;;;;;;;8.45;73.37;96778.47;4823315;29;20054;-39
2022/01/01 04:53:16;;;;;;;6.80;3.17;;;;;;;8.60;72.42;96786.28;4823163;29;20050;-39
2022/01/01 04:55:47;;;;;;;5.18;3.05;;;;;;;8.00;75.31;96788.94;4823574;29;20054;-40
2022/01/01 04:58:14;;;;;;;5.30;2.97;;;;;;;7.26;79.06;96787.56;4823122;29;20505;-40
2022/01/01 05:00:42;;;;;;;5.72;2.85;;;;;;;7.53;78.18;96786.13;4823378;29;20050;-40
2022/01/01 05:03:09;;;;;;;6.07;3.05;;;;;;;7.00;80.15;96792.47;4823379;29;20047;-40
2022/01/01 05:05:36;;;;;;;5.85;3.72;;;;;;;7.52;77.86;96781.84;4823364;29;20050;-40
2022/01/01 05:08:03;;;;;;;6.00;3.20;;;;;;;8.11;74.90;96790.38;4822658;29;20058;-40
2022/01/01 05:10:30;;;;;;;5.18;2.75;;;;;;;7.50;77.71;96792.09;4823099;29;20058;-40
2022/01/01 05:12:57;;;;;;;5.13;2.80;;;;;;;7.35;78.46;96792.31;4823166;29;20437;-41
2022/01/01 05:15:24;;;;;;;4.80;2.90;;;;;;;7.41;78.53;96796.53;4823011;29;20061;-40
2022/01/01 05:17:51;;;;;;;4.68;2.85;;;;;;;7.13;79.70;96809.81;4822554;29;20520;-40
2022/01/01 05:20:17;;;;;;;5.90;3.10;;;;;;;7.01;81.32;96809.44;4823063;29;20050;-40
2022/01/01 05:22:44;;;;;;;5.15;3.10;;;;;;;6.97;81.39;96809.19;4822979;29;20062;-39
2022/01/01 05:25:11;;;;;;;7.38;2.90;;;;;;;7.57;78.38;96803.31;4823089;29;20043;-38
2022/01/01 05:27:38;;;;;;;5.20;2.88;;;;;;;7.99;75.20;96806.97;4822528;29;20047;-39
2022/01/01 05:30:07;;;;;;;5.45;2.83;;;;;;;8.20;74.15;96797.47;4822777;29;20053;-39
2022/01/01 05:32:34;;;;;;;4.50;3.03;;;;;;;8.20;73.85;96812.84;4822770;29;20061;-42
2022/01/01 05:35:01;;;;;;;5.18;2.90;;;;;;;7.71;76.47;96800.69;4822939;29;20046;-39
2022/01/01 05:37:28;;;;;;;5.93;2.78;;;;;;;8.18;73.66;96796.16;4822243;29;20085;-39
2022/01/01 05:39:54;;;;;;;5.00;2.80;;;;;;;7.91;75.31;96794.19;4822645;29;20069;-39
2022/01/01 05:42:21;;;;;;;5.65;3.22;;;;;;;7.81;76.02;96805.13;4822902;29;20384;-38
2022/01/01 05:44:48;;;;;;;6.32;3.50;;;;;;;6.92;79.37;96803.91;4822419;29;20421;-42
2022/01/01 05:47:15;;;;;;;7.97;3.78;;;;;;;6.90;80.01;96799.88;4822438;29;20062;-43
2022/01/01 05:49:42;;;;;;;5.88;2.95;;;;;;;7.73;75.23;96799.31;4822271;29;20060;-39
2022/01/01 05:52:09;;;;;;;5.53;2.92;;;;;;;7.86;74.50;96789.66;4822097;29;20063;-39
2022/01/01 05:54:36;;;;;;;4.78;2.85;;;;;;;6.57;81.87;96788.94;4823024;29;20149;-39
2022/01/01 05:57:03;;;;;;;5.40;3.25;;;;;;;6.16;83.70;96792.03;4822411;29;20054;-40
2022/01/01 05:59:30;;;;;;;6.60;3.33;;;;;;;5.51;85.94;96775.31;4821772;29;20054;-39
2022/01/01 06:01:57;;;;;;;7.85;3.25;;;;;;;5.39;87.36;96783.69;4836230;29;20480;-38
2022/01/01 06:04:24;;;;;;;5.43;3.05;;;;;;;5.03;88.97;96797.31;4822477;29;20065;-37
2022/01/01 06:06:52;;;;;;;6.65;3.40;;;;;;;5.28;88.75;96799.06;4822307;29;20046;-38
2022/01/01 06:09:19;;;;;;;5.70;3.15;;;;;;;5.80;86.12;96796.88;4821714;29;20065;-39
2022/01/01 06:11:45;;;;;;;7.10;3.08;;;;;;;6.75;79.72;96806.22;4822448;29;20046;-39
2022/01/01 06:14:12;;;;;;;5.60;3.10;;;;;;;7.14;77.22;96800.66;4822501;29;20042;-38
2022/01/01 06:16:39;;;;;;;5.78;3.30;;;;;;;7.21;77.21;96803.81;4821995;29;20082;-42
2022/01/01 06:19:06;;;;;;;5.10;2.95;;;;;;;6.81;80.04;96804.28;4821784;29;20050;-39
2022/01/01 06:21:33;;;;;;;7.63;4.47;;;;;;;6.24;82.96;96798.66;4822197;29;20046;-39
2022/01/01 06:24:00;;;;;;;7.88;4.15;;;;;;;6.05;84.74;96798.59;4822331;29;20043;-39
2022/01/01 06:26:27;;;;;;;7.22;3.72;;;;;;;7.03;78.29;96804.56;4835893;29;20046;-39
2022/01/01 06:28:54;;;;;;;6.03;3.20;;;;;;;7.26;76.88;96806.41;4821655;29;20058;-42
2022/01/01 06:31:20;;;;;;;4.97;2.95;;;;;;;6.17;83.03;96803.56;4821933;29;20412;-39
2022/01/01 06:33:48;;;;;;;6.53;3.55;;;;;;;7.06;77.96;96801.31;4822327;29;20386;-39
2022/01/01 06:36:17;;;;;;;5.45;2.75;;;;;;;5.54;86.11;96798.91;4835808;29;20047;-39
2022/01/01 06:38:45;;;;;;;5.97;3.10;;;;;;;5.73;86.86;96799.88;4822121;29;20057;-40
2022/01/01 06:41:12;;;;;;;5.00;3.05;;;;;;;6.57;80.87;96793.53;4822427;29;20054;-43
2022/01/01 06:43:39;;;;;;;5.85;3.10;;;;;;;6.90;78.70;96795.31;4826332;29;20042;-41
2022/01/01 06:46:07;;;;;;;5.30;3.10;;;;;;;6.94;78.48;96804.38;4826085;29;20054;-39
2022/01/01 06:48:34;;;;;;;6.43;3.47;;;;;;;5.73;86.69;96802.56;4822901;29;20484;-39
2022/01/01 06:51:02;;;;;;;6.25;3.70;;;;;;;6.26;84.41;96809.94;4822679;29;20137;-39
2022/01/01 06:53:31;;;;;;;6.03;3.10;;;;;;;6.98;78.43;96801.94;4822815;29;20061;-41
2022/01/01 06:55:59;;;;;;;8.43;3.38;;;;;;;6.53;81.84;96804.03;4823994;29;20043;-40
2022/01/01 06:58:27;;;;;;;5.60;2.97;;;;;;;5.95;86.06;96798.66;4840456;29;20519;-39
2022/01/01 07:00:54;;;;;;;5.90;3.17;;;;;;;6.67;81.59;96799.59;4841150;29;20066;-39
2022/01/01 07:03:22;;;;;;;5.22;2.97;;;;;;;7.09;78.71;96803.41;4844527;29;20410;-41
2022/01/01 07:05:50;;;;;;;5.25;2.97;;;;;;;6.14;85.00;96788.81;4845729;29;20423;-40
2022/01/01 07:08:17;;;;;;;7.28;3.15;;;;;;;5.84;87.21;96795.22;4842175;29;20069;-43
2022/01/01 07:10:45;;;;;;;4.85;2.63;;;;;;;5.98;86.17;96792.72;4825473;29;20046;-43
2022/01/01 07:13:16;;;;;;;6.00;3.15;;;;;;;6.04;86.55;96800.44;4825143;29;20103;-39
2022/01/01 07:15:44;;;;;;;5.50;3.17;;;;;;;5.60;88.46;96797.81;4825528;29;20131;-40
2022/01/01 07:18:10;;;;;;;6.97;3.00;;;;;;;5.55;89.34;96808.56;4830912;29;20084;-39
2022/01/01 07:20:38;;;;;;;5.07;3.30;;;;;;;5.78;88.95;96807.88;4843425;29;20054;-41
2022/01/01 07:23:05;;;;;;;5.22;2.70;;;;;;;6.60;82.43;96799.13;4826394;29;20073;-40
2022/01/01 07:25:32;;;;;;;4.30;2.30;;;;;;;6.98;80.59;96810.78;4824755;29;20050;-39
2022/01/01 07:27:59;;;;;;;4.47;2.78;;;;;;;6.69;82.27;96810.84;4824378;29;20046;-42
2022/01/01 07:30:26;;;;;;;4.82;2.90;;;;;;;7.02;80.72;96813.75;4832785;29;20050;-43
2022/01/01 07:32:52;;;;;;;5.43;2.92;;;;;;;7.15;78.44;96799.56;4842939;29;20054;-38
2022/01/01 07:35:21;;;;;;;4.60;2.25;;;;;;;6.88;80.37;96802.84;4842840;29;20053;-38
2022/01/01 07:37:49;;;;;;;5.57;2.70;;;;;;;7.22;78.76;96800.03;4834080;29;20057;-40
2022/01/01 07:40:17;;;;;;;4.88;2.67;;;;;;;7.42;78.04;96792.75;4824621;29;20046;-41
2022/01/01 07:42:45;;;;;;;5.75;2.47;;;;;;;7.59;76.96;96786.88;4824483;29;20066;-42
2022/01/01 07:45:13;;;;;;;4.90;2.58;;;;;;;7.47;77.78;96782.72;4824351;29;20092;-38
2022/01/01 07:47:40;;;;;;;4.38;2.47;;;;;;;7.35;78.47;96789.63;4823929;29;20489;-42
2022/01/01 07:50:09;;;;;;;4.75;2.65;;;;;;;7.35;78.24;96784.25;4824627;29;20051;-44
2022/01/01 07:52:37;;;;;;;6.03;2.70;;;;;;;7.64;76.67;96781.41;4836489;29;20068;-42
2022/01/01 07:55:04;;;;;;;4.78;2.65;;;;;;;7.19;79.28;96786.34;4842920;29;20065;-41
2022/01/01 07:57:31;;;;;;;5.35;2.80;;;;;;;7.72;76.26;96792.31;4842561;29;20132;-41
2022/01/01 07:59:58;;;;;;;4.72;2.50;;;;;;;7.87;75.28;96788.59;4842406;29;20435;-43
2022/01/01 08:02:25;;;;;;;5.28;2.70;;;;;;;7.09;79.20;96798.03;4842744;29;20460;-43
2022/01/01 08:04:53;;;;;;;4.55;2.78;;;;;;;7.53;77.10;96783.44;4824115;29;20495;-42
2022/01/01 08:07:19;;;;;;;4.38;2.45;;;;;;;7.26;78.10;96786.78;4823745;29;20056;-42
2022/01/01 08:10:09;;;;;;;5.57;2.70;;;;;;;7.76;75.79;96792.53;4830704;29;20045;-42
2022/01/01 08:12:36;;;;;;;4.72;2.60;;;;;;;7.57;77.00;96789.88;4842314;29;20050;-42
2022/01/01 08:15:05;;;;;;;6.40;2.95;;;;;;;7.68;76.42;96794.00;4863565;23;20436;-43
2022/01/01 08:17:32;;;;;;;5.53;2.55;;;;;;;7.67;76.44;96796.97;4842093;29;20096;-39
2022/01/01 08:19:59;;;;;;;4.40;2.67;;;;;;;8.30;73.25;96785.72;4841118;29;20117;-39
2022/01/01 08:22:26;;;;;;;4.78;2.70;;;;;;;8.22;72.82;96797.16;4829808;29;20397;-39
2022/01/01 08:24:53;;;;;;;6.40;2.83;;;;;;;8.02;74.18;96806.41;4824562;29;20050;-40
2022/01/01 08:27:20;;;;;;;5.65;2.60;;;;;;;7.64;75.36;96803.75;4838281;29;20071;-39
2022/01/01 08:29:48;;;;;;;6.57;2.38;;;;;;;7.49;76.67;96814.72;4824672;29;20042;-39
2022/01/01 08:32:15;;;;;;;4.68;2.42;;;;;;;7.94;74.92;96817.84;4838655;29;20085;-41
2022/01/01 08:34:42;;;;;;;4.05;2.58;;;;;;;7.61;75.63;96815.09;4824497;29;20588;-40
2022/01/01 08:37:09;;;;;;;4.53;2.60;;;;;;;7.60;75.65;96824.25;4824083;29;20046;-40
2022/01/01 08:39:37;;;;;;;4.88;2.78;;;;;;;8.06;73.61;96823.59;4823881;29;20137;-38
2022/01/01 08:42:05;;;;;;;6.68;2.40;;;;;;;8.26;73.01;96825.16;4822805;29;20142;-40
2022/01/01 08:44:32;;;;;;;5.18;2.70;;;;;;;8.05;73.41;96824.69;4824061;29;20054;-40
2022/01/01 08:46:59;;;;;;;4.75;2.70;;;;;;;7.77;74.70;96823.78;4824158;29;20405;-41
2022/01/01 08:49:26;;;;;;;4.80;2.90;;;;;;;7.77;74.81;96828.34;4822153;29;20054;-43
2022/01/01 08:51:55;;;;;;;4.25;2.17;;;;;;;8.09;73.67;96836.50;4823398;29;20497;-44
2022/01/01 08:54:22;;;;;;;4.68;2.40;;;;;;;8.49;72.26;96822.66;4824238;29;20118;-42
2022/01/01 08:56:50;;;;;;;4.20;2.42;;;;;;;8.68;71.23;96826.09;4824312;29;20054;-43
2022/01/01 08:59:18;;;;;;;6.35;2.63;;;;;;;8.63;71.50;96829.66;4824303;29;20046;-42
2022/01/01 09:01:45;;;;;;;4.05;2.80;;;;;;;8.36;72.00;96821.50;4823820;29;20133;-41
2022/01/01 09:04:12;;;;;;;6.25;2.65;;;;;;;8.52;71.93;96827.47;4824579;29;20058;-44
2022/01/01 09:06:39;;;;;;;4.60;2.38;;;;;;;8.39;71.43;96824.44;4823908;29;20398;-42
2022/01/01 09:09:06;;;;;;;5.95;2.90;;;;;;;8.83;70.79;96817.69;4822998;29;20042;-45
2022/01/01 09:11:33;;;;;;;5.43;2.75;;;;;;;8.59;71.46;96815.16;4823866;29;20059;-43
2022/01/01 09:14:00;;;;;;;4.57;2.30;;;;;;;8.54;71.54;96812.56;4823517;29;20150;-44
2022/01/01 09:16:29;;;;;;;4.38;2.40;;;;;;;8.54;71.01;96809.84;4823499;29;20417;-42
2022/01/01 09:18:57;;;;;;;4.13;2.47;;;;;;;8.59;71.23;96825.97;4822653;29;20141;-43
2022/01/01 09:21:27;;;;;;;4.85;2.75;;;;;;;8.98;69.91;96824.69;4822445;29;20152;-43
2022/01/01 09:23:55;;;;;;;5.13;2.70;;;;;;;8.68;70.58;96831.47;4823639;29;20049;-41
2022/01/01 09:26:26;;;;;;;4.40;2.63;;;;;;;8.75;70.50;96820.28;4824179;29;20199;-42
2022/01/01 09:28:53;;;;;;;5.60;2.95;;;;;;;8.87;70.52;96828.69;4822923;29;20049;-44
2022/01/01 09:31:20;;;;;;;5.18;2.92;;;;;;;8.58;71.24;96837.84;4841795;29;20049;-46
2022/01/01 09:33:47;;;;;;;5.38;2.90;;;;;;;8.46;71.80;96837.53;4840369;29;20468;-46
2022/01/01 09:36:17;;;;;;;5.28;2.72;;;;;;;8.66;70.84;96833.66;4841325;29;20050;-43
2022/01/01 09:38:45;;;;;;;5.45;2.70;;;;;;;8.62;71.12;96838.84;4837542;29;20058;-43
2022/01/01 09:41:13;;;;;;;7.70;2.50;;;;;;;8.66;70.89;96844.47;4823308;29;20050;-45
2022/01/01 09:43:41;;;;;;;4.78;2.60;;;;;;;8.73;70.75;96857.56;4807162;29;20127;-42
2022/01/01 09:46:12;;;;;;;5.05;3.10;;;;;;;8.90;70.43;96849.66;4823117;29;20049;-44
2022/01/01 09:48:40;;;;;;;7.03;3.00;;;;;;;8.85;70.27;96855.19;4822801;29;20383;-45
2022/01/01 09:51:09;;;;;;;5.32;3.20;;;;;;;9.13;69.30;96855.97;4823902;29;20540;-40
2022/01/01 09:53:39;;;;;;;5.28;3.05;;;;;;;9.02;69.28;96854.59;4841314;29;20052;-40
2022/01/01 09:56:06;;;;;;;6.60;2.80;;;;;;;8.92;69.76;96844.00;4841573;29;20042;-39
2022/01/01 09:58:35;;;;;;;5.35;2.60;;;;;;;8.96;69.55;96850.38;4840762;29;20137;-40
2022/01/01 10:01:04;;;;;;;4.28;2.55;;;;;;;9.20;68.70;96856.41;4835311;29;20372;-40
2022/01/01 10:03:41;;;;;;;6.93;3.15;;;;;;;9.40;68.82;96847.09;4823102;29;20047;-40
2022/01/01 10:06:16;;;;;;;5.90;2.70;;;;;;;9.43;68.39;96848.38;4823224;29;20047;-40
2022/01/01 10:08:57;;;;;;;4.55;2.83;;;;;;;9.38;68.94;96843.88;4827674;29;20053;-40
2022/01/01 10:11:26;;;;;;;6.18;3.33;;;;;;;9.49;68.55;96839.88;4855028;29;20064;-41
2022/01/01 10:13:53;;;;;;;6.85;3.22;;;;;;;9.54;68.34;96837.06;4841514;29;20344;-39
2022/01/01 10:16:21;;;;;;;5.68;3.25;;;;;;;9.49;68.62;96830.94;4841311;29;20644;-40
2022/01/01 10:18:51;;;;;;;4.75;2.78;;;;;;;9.71;68.23;96835.63;4832705;29;20115;-46
2022/01/01 10:21:20;;;;;;;5.93;3.30;;;;;;;9.77;67.77;96834.41;4822831;29;20055;-44
2022/01/01 10:23:52;;;;;;;5.45;3.10;;;;;;;9.77;67.71;96843.31;4823013;29;20459;-41
2022/01/01 10:29:28;;;;;;;10.02;4.80;;;;;;;9.90;67.43;96838.97;4823231;29;20133;-41
2022/01/01 10:32:01;;;;;;;6.38;2.95;;;;;;;9.87;66.66;96839.56;4835017;29;20050;-40
2022/01/01 10:34:36;;;;;;;6.20;2.85;;;;;;;10.20;66.57;96842.06;4845601;29;20439;-39
2022/01/01 10:37:33;;;;;;;5.18;3.20;;;;;;;9.98;66.18;96832.84;4844760;29;20046;-40
2022/01/01 10:40:00;;;;;;;5.47;3.30;;;;;;;10.20;66.70;96836.66;4837888;29;20042;-42
2022/01/01 10:42:28;;;;;;;4.60;2.65;;;;;;;10.35;66.17;96830.91;4826569;29;20046;-39
2022/01/01 10:44:55;;;;;;;6.72;3.45;;;;;;;9.95;66.46;96827.25;4826111;29;20489;-39
2022/01/01 10:47:30;;;;;;;3.53;2.30;;;;;;;10.09;66.43;96829.91;4828803;29;20337;-39
2022/01/01 10:50:14;;;;;;;6.22;2.80;;;;;;;10.36;66.38;96821.66;4844518;29;20042;-42
2022/01/01 10:52:45;;;;;;;4.57;2.42;;;;;;;10.47;66.10;96820.31;4830711;29;20047;-42
2022/01/01 10:55:13;;;;;;;4.50;2.65;;;;;;;10.46;66.05;96818.72;4824821;29;20039;-43
2022/01/01 10:57:52;;;;;;;5.88;2.30;;;;;;;10.35;66.86;96808.47;4826008;29;20052;-43
2022/01/01 11:00:21;;;;;;;3.97;2.30;;;;;;;10.39;67.08;96818.34;4825461;29;20050;-42
2022/01/01 11:02:51;;;;;;;5.13;2.45;;;;;;;10.33;66.93;96808.75;4826138;29;20056;-43
2022/01/01 11:05:27;;;;;;;6.40;2.28;;;;;;;10.48;66.66;96800.25;4825893;29;20524;-44
2022/01/01 11:07:55;;;;;;;3.00;1.95;;;;;;;10.40;67.18;96797.50;4825772;29;20081;-42
2022/01/01 11:10:23;;;;;;;4.25;2.30;;;;;;;11.04;65.80;96791.75;4827605;29;20054;-40
2022/01/01 11:12:51;;;;;;;3.53;2.00;;;;;;;10.95;65.61;96797.94;4841826;29;20137;-40
2022/01/01 11:15:20;;;;;;;4.63;2.00;;;;;;;10.88;66.11;96802.19;4825718;29;20129;-40
2022/01/01 11:17:48;;;;;;;3.80;2.05;;;;;;;10.90;66.47;96795.38;4825832;29;20072;-40
2022/01/01 11:20:17;;;;;;;4.72;2.00;;;;;;;10.96;65.81;96791.41;4825226;29;20046;-40
2022/01/01 11:22:47;;;;;;;3.90;1.90;;;;;;;11.53;65.53;96785.16;4825270;29;20051;-40
2022/01/01 11:25:14;;;;;;;4.03;2.05;;;;;;;11.81;62.59;96791.09;4825268;29;20133;-41
2022/01/01 11:27:41;;;;;;;3.13;1.80;;;;;;;11.35;63.92;96787.06;4825160;29;20060;-40
2022/01/01 11:30:11;;;;;;;3.45;1.92;;;;;;;11.46;63.81;96787.53;4824422;29;20053;-42
2022/01/01 11:32:53;;;;;;;3.75;2.00;;;;;;;11.61;63.44;96789.00;4825103;29;20133;-39
2022/01/01 11:35:23;;;;;;;4.20;1.92;;;;;;;11.89;62.92;96787.63;4824863;29;20046;-39
2022/01/01 11:37:56;;;;;;;3.28;2.22;;;;;;;13.10;58.02;96789.22;4825439;29;20536;-43
2022/01/01 11:40:24;;;;;;;4.20;2.25;;;;;;;12.24;60.21;96784.84;4825389;29;20060;-41
2022/01/01 11:42:52;;;;;;;3.13;2.08;;;;;;;12.06;61.05;96786.81;4825328;29;20462;-46
2022/01/01 11:45:41;;;;;;;3.40;2.10;;;;;;;13.22;60.17;96777.63;4825243;29;20047;-47
2022/01/01 11:48:31;;;;;;;4.25;2.00;;;;;;;14.54;55.02;96781.75;4824326;29;20054;-45
2022/01/01 11:51:35;;;;;;;4.45;2.15;;;;;;;14.15;55.54;96772.97;4825249;29;20050;-44
2022/01/01 11:54:22;;;;;;;4.10;2.22;;;;;;;12.71;58.65;96760.47;4825051;29;20050;-43
2022/01/01 11:56:56;;;;;;;4.10;2.22;;;;;;;12.49;60.23;96756.06;4825030;29;20069;-41
2022/01/01 11:59:27;;;;;;;3.42;2.08;;;;;;;12.96;58.62;96761.47;4839756;29;20054;-44